Ever Delight — 3FCB8 — position and weather

sailwx.info

Track history (hours):
 
Tides and Currents Weather Stations Pressure Air Temp Water Temp Dewpoint Dewpoint Depression Visibility Wind Speed Wind Dir Waves Ship Positions

Ever Delight

Last reported at 2015-Aug-02 19:19 UTC. Time now 2015-Aug-03 13:11 UTC.
Position N 34°31' E 122°29'.

Type: Cargo ship. MMSI: 351936000.

Date/timePositionNaut miles runAvg speedWind from/ knotsBaromVisibWave heightAir tempDewpointWater temp
2015-Aug-02 19:19N 34°31' E 122°29'1715.9
2015-Aug-02 18:17N 34°19' E 122°43'1616.2
2015-Aug-02 17:16N 34°04' E 122°50'1216.7
2015-Aug-02 16:33N 33°52' E 122°53'1616.2
2015-Aug-02 15:33N 33°37' E 122°58'1715.7
2015-Aug-02 14:28N 33°20' E 123°04'1915.1
2015-Aug-02 13:11N 33°02' E 123°13'914.3
2015-Aug-02 12:33N 32°54' E 123°16'1413.8
2015-Aug-02 11:33N 32°40' E 123°17'1413.3
2015-Aug-02 10:30N 32°26' E 123°16'1213.2
2015-Aug-02 09:33N 32°13' E 123°16'1413.9
2015-Aug-02 08:33N 31°60' E 123°13'1414.4
2015-Aug-02 07:33N 31°45' E 123°12'1514.9
2015-Aug-02 06:33N 31°30' E 123°11'1616.2
2015-Aug-02 05:33N 31°15' E 123°06'1616.2
2015-Aug-02 04:33N 30°59' E 123°02'1616.1
2015-Aug-02 03:33N 30°44' E 122°55'1614.2
2015-Aug-02 02:24N 30°36' E 122°38'1113.0
2015-Aug-02 01:33N 30°32' E 122°26'1110.9
2015-Aug-02 00:34N 30°33' E 122°14'8 8.1
2015-Aug-01 23:32N 30°36' E 122°05'0 0.0
2015-Aug-01 22:33N 30°36' E 122°05'0 0.0
2015-Aug-01 21:33N 30°36' E 122°05'0 0.0
2015-Aug-01 20:32N 30°36' E 122°05'0 0.0
2015-Aug-01 19:33N 30°36' E 122°05'0 0.0
2015-Aug-01 18:31N 30°36' E 122°05'0 0.0
2015-Aug-01 17:32N 30°36' E 122°05'0 0.0
2015-Aug-01 16:26N 30°36' E 122°05'0 0.0
2015-Aug-01 15:22N 30°36' E 122°05'0 0.0
2015-Aug-01 14:22N 30°36' E 122°05'0 0.0
2015-Aug-01 13:22N 30°36' E 122°05'0 0.0
2015-Aug-01 12:34N 30°36' E 122°05'0 0.0
2015-Aug-01 11:29N 30°36' E 122°05'1 1.3
2015-Aug-01 10:33N 30°36' E 122°06'1312.6
2015-Aug-01 09:33N 30°33' E 122°20'1414.1
2015-Aug-01 08:33N 30°30' E 122°36'6 3.2
2015-Aug-01 06:32N 30°25' E 122°41'0 0.1
2015-Aug-01 05:34N 30°25' E 122°41'0 0.1
2015-Aug-01 02:26N 30°25' E 122°41'0 0.1
2015-Aug-01 00:04N 30°25' E 122°41'0 0.1
2015-Jul-31 22:18N 30°25' E 122°41'0 0.1
2015-Jul-31 21:30N 30°25' E 122°41'0 0.1
2015-Jul-31 20:32N 30°25' E 122°41'0 0.2
2015-Jul-31 19:20N 30°25' E 122°41'4 2.4
2015-Jul-31 17:33N 30°27' E 122°46'1413.7
2015-Jul-31 16:33N 30°19' E 122°59'2014.8
2015-Jul-31 15:11N 29°60' E 123°05'1015.7
2015-Jul-31 14:33N 29°52' E 122°58'1716.0
2015-Jul-31 13:31N 29°42' E 122°42'1313.2
2015-Jul-31 12:32N 29°42' E 122°28'1110.7
2015-Jul-31 11:31N 29°47' E 122°16'1212.1
2015-Jul-31 10:32N 29°55' E 122°07'1312.6
2015-Jul-31 09:31N 29°56' E 121°52'0 0.0
2015-Jul-30 23:29N 29°56' E 121°52'0 0.0
2015-Jul-30 22:32N 29°56' E 121°52'1 0.3
2015-Jul-30 18:06N 29°57' E 121°54'0 0.1
2015-Jul-30 17:31N 29°57' E 121°54'2 1.9
2015-Jul-30 16:18N 29°58' E 121°56'6 5.9
2015-Jul-30 15:13N 29°56' E 122°03'6 9.2
2015-Jul-30 14:33N 29°55' E 122°10'1110.2
2015-Jul-30 13:27N 29°46' E 122°18'5 5.6
2015-Jul-30 12:29N 29°44' E 122°24'9 9.2
2015-Jul-30 11:29N 29°46' E 122°34'3 0.1
2015-Jul-29 12:28N 29°48' E 122°36'5 5.4
2015-Jul-29 11:30N 29°48' E 122°42'1413.9
2015-Jul-29 10:31N 29°48' E 122°58'1615.0
2015-Jul-29 09:26N 29°58' E 123°13'1315.1
2015-Jul-29 08:33N 30°06' E 123°25'1815.3
2015-Jul-29 07:23N 30°18' E 123°41'1314.9
2015-Jul-29 06:29N 30°26' E 123°53'12814.3
2015-Jul-28 21:30N 31°47' E 125°49'1415.0
2015-Jul-28 20:34N 31°56' E 126°03'  
Track history (hours):
 
Tides and Currents Weather Stations Pressure Air Temp Water Temp Dewpoint Dewpoint Depression Visibility Wind Speed Wind Dir Waves Ship Positions

Ever Delight

Last reported at 2015-Aug-02 19:19 UTC. Time now 2015-Aug-03 13:11 UTC.
Position N 34°31' E 122°29'.

Type: Cargo ship. MMSI: 351936000.

Date/timePositionNaut miles runAvg speedWind from/ knotsBaromVisibWave heightAir tempDewpointWater temp
2015-Aug-02 19:19N 34°31' E 122°29'1715.9
2015-Aug-02 18:17N 34°19' E 122°43'1616.2
2015-Aug-02 17:16N 34°04' E 122°50'1216.7
2015-Aug-02 16:33N 33°52' E 122°53'1616.2
2015-Aug-02 15:33N 33°37' E 122°58'1715.7
2015-Aug-02 14:28N 33°20' E 123°04'1915.1
2015-Aug-02 13:11N 33°02' E 123°13'914.3
2015-Aug-02 12:33N 32°54' E 123°16'1413.8
2015-Aug-02 11:33N 32°40' E 123°17'1413.3
2015-Aug-02 10:30N 32°26' E 123°16'1213.2
2015-Aug-02 09:33N 32°13' E 123°16'1413.9
2015-Aug-02 08:33N 31°60' E 123°13'1414.4
2015-Aug-02 07:33N 31°45' E 123°12'1514.9
2015-Aug-02 06:33N 31°30' E 123°11'1616.2
2015-Aug-02 05:33N 31°15' E 123°06'1616.2
2015-Aug-02 04:33N 30°59' E 123°02'1616.1
2015-Aug-02 03:33N 30°44' E 122°55'1614.2
2015-Aug-02 02:24N 30°36' E 122°38'1113.0
2015-Aug-02 01:33N 30°32' E 122°26'1110.9
2015-Aug-02 00:34N 30°33' E 122°14'8 8.1
2015-Aug-01 23:32N 30°36' E 122°05'0 0.0
2015-Aug-01 22:33N 30°36' E 122°05'0 0.0
2015-Aug-01 21:33N 30°36' E 122°05'0 0.0
2015-Aug-01 20:32N 30°36' E 122°05'0 0.0
2015-Aug-01 19:33N 30°36' E 122°05'0 0.0
2015-Aug-01 18:31N 30°36' E 122°05'0 0.0
2015-Aug-01 17:32N 30°36' E 122°05'0 0.0
2015-Aug-01 16:26N 30°36' E 122°05'0 0.0
2015-Aug-01 15:22N 30°36' E 122°05'0 0.0
2015-Aug-01 14:22N 30°36' E 122°05'0 0.0
2015-Aug-01 13:22N 30°36' E 122°05'0 0.0
2015-Aug-01 12:34N 30°36' E 122°05'0 0.0
2015-Aug-01 11:29N 30°36' E 122°05'1 1.3
2015-Aug-01 10:33N 30°36' E 122°06'1312.6
2015-Aug-01 09:33N 30°33' E 122°20'1414.1
2015-Aug-01 08:33N 30°30' E 122°36'6 3.2
2015-Aug-01 06:32N 30°25' E 122°41'0 0.1
2015-Aug-01 05:34N 30°25' E 122°41'0 0.1
2015-Aug-01 02:26N 30°25' E 122°41'0 0.1
2015-Aug-01 00:04N 30°25' E 122°41'0 0.1
2015-Jul-31 22:18N 30°25' E 122°41'0 0.1
2015-Jul-31 21:30N 30°25' E 122°41'0 0.1
2015-Jul-31 20:32N 30°25' E 122°41'0 0.2
2015-Jul-31 19:20N 30°25' E 122°41'4 2.4
2015-Jul-31 17:33N 30°27' E 122°46'1413.7
2015-Jul-31 16:33N 30°19' E 122°59'2014.8
2015-Jul-31 15:11N 29°60' E 123°05'1015.7
2015-Jul-31 14:33N 29°52' E 122°58'1716.0
2015-Jul-31 13:31N 29°42' E 122°42'1313.2
2015-Jul-31 12:32N 29°42' E 122°28'1110.7
2015-Jul-31 11:31N 29°47' E 122°16'1212.1
2015-Jul-31 10:32N 29°55' E 122°07'1312.6
2015-Jul-31 09:31N 29°56' E 121°52'0 0.0
2015-Jul-30 23:29N 29°56' E 121°52'0 0.0
2015-Jul-30 22:32N 29°56' E 121°52'1 0.3
2015-Jul-30 18:06N 29°57' E 121°54'0 0.1
2015-Jul-30 17:31N 29°57' E 121°54'2 1.9
2015-Jul-30 16:18N 29°58' E 121°56'6 5.9
2015-Jul-30 15:13N 29°56' E 122°03'6 9.2
2015-Jul-30 14:33N 29°55' E 122°10'1110.2
2015-Jul-30 13:27N 29°46' E 122°18'5 5.6
2015-Jul-30 12:29N 29°44' E 122°24'9 9.2
2015-Jul-30 11:29N 29°46' E 122°34'3 0.1
2015-Jul-29 12:28N 29°48' E 122°36'5 5.4
2015-Jul-29 11:30N 29°48' E 122°42'1413.9
2015-Jul-29 10:31N 29°48' E 122°58'1615.0
2015-Jul-29 09:26N 29°58' E 123°13'1315.1
2015-Jul-29 08:33N 30°06' E 123°25'1815.3
2015-Jul-29 07:23N 30°18' E 123°41'1314.9
2015-Jul-29 06:29N 30°26' E 123°53'12814.3
2015-Jul-28 21:30N 31°47' E 125°49'1415.0
2015-Jul-28 20:34N 31°56' E 126°03'  

Dump ship's entire track history